x

Smith Island, Wa (sisw1) Weather Station

11:00pm - Tue 19th Sep 2017 All times are PDT. -7 hours from GMT.

  • Wind
    11mph, 13mph gusts
  • 空気 Temp 52°f
  • Sea Pressure 1006.3mb
  • Smith Island, Wa
  • Smith Island, Wa

More Historic Weather Station data

Upgrade to MSW Pro to gain access to the past 30 days of data for over 8000 Wavebouys and Weather Stations around the globe.

Join

Comparision Forecast

View Surf forecast
   
Tue 09/19 11:00pm 11 13 mph 1006.3mb 52f
10:00pm 6 9 mph 1006.6mb 51f
9:00pm 5 6 mph 1006.8mb 53f
8:00pm 13 16 mph 1006.9mb 53f
7:00pm 10 11 mph 1007.1mb 52f
6:00pm 7 8 mph 1007.4mb 52f
5:00pm 5 7 mph 1007.5mb 54f
4:00pm 10 13 mph 1007.7mb 54f
3:00pm 6 6 mph 1007.4mb 54f
2:00pm 3 6 mph 1007.6mb 56f
1:00pm 5 5 mph 1007.8mb 54f
12:00pm 3 6 mph 1007.7mb 52f
11:00am 10 10 mph 1007.4mb 52f
10:00am 3 5 mph 1007mb 53f
9:00am 6 6 mph 1006.7mb 51f
8:00am 6 7 mph 1006.1mb 51f
7:00am 9 10 mph 1005.8mb 50f
6:00am 13 15 mph 1005.1mb 51f
5:00am 15 16 mph 1004.8mb 51f
4:00am 15 16 mph 1004.6mb 52f
3:00am 15 16 mph 1004.3mb 52f
2:00am 20 22 mph 1004.3mb 52f
1:00am 17 20 mph 1004.4mb 52f
12:00am 20 22 mph 1004.5mb 52f
Mon 09/18 11:00pm 22 24 mph 1004.5mb 53f
10:00pm 22 25 mph 1004.6mb 53f
9:00pm 17 18 mph 1004.7mb 53f
8:00pm 15 16 mph 1004.9mb 53f
7:00pm 13 15 mph 1005.1mb 55f
6:00pm 6 7 mph 1005.5mb 55f
5:00pm 1 2 mph 1005.9mb 56f
4:00pm 5 6 mph 1006.4mb 56f
3:00pm  -  2 mph 1006.8mb 58f
2:00pm 6 7 mph 1007.3mb 57f
1:00pm 8 10 mph 1007.5mb 57f
12:00pm 9 11 mph 1007.8mb 56f
11:00am 7 8 mph 1007.8mb 55f
10:00am 5 6 mph 1007.8mb 52f
9:00am 5 6 mph 1007.6mb 51f
8:00am 9 9 mph 1007.6mb 50f
7:00am 9 11 mph 1007.6mb 51f
6:00am 11 13 mph 1007.3mb 50f
5:00am 11 13 mph 1007.7mb 51f
4:00am 13 14 mph 1007.9mb 51f
3:00am 11 11 mph 1008.5mb 51f
2:00am 10 13 mph 1008.8mb 51f
1:00am 13 15 mph 1009.1mb 51f
12:00am 15 18 mph 1009.6mb 52f
Sun 09/17 11:00pm 14 17 mph 1009.3mb 52f
10:00pm 23 26 mph 1008mb 54f
9:00pm 28 31 mph 1007.6mb 55f
8:00pm 2 3 mph 1007.6mb 54f
7:00pm 5 7 mph 1007.6mb 53f
6:00pm 6 8 mph 1007.8mb 52f
5:00pm 8 11 mph 1007.3mb 53f
4:00pm 14 16 mph 1007.3mb 54f
3:00pm 32 34 mph 1006.1mb 58f
2:00pm 31 37 mph 1005.9mb 58f
1:00pm 26 30 mph 1006.5mb 58f
12:00pm 22 24 mph 1007.8mb 59f
11:00am 11 13 mph 1008.7mb 56f
10:00am 13 13 mph 1009.4mb 55f
9:00am 13 14 mph 1009.4mb 55f
8:00am 11 13 mph 1009.5mb 53f
7:00am 13 14 mph 1009.8mb 53f
6:00am 8 10 mph 1010.3mb 53f
5:00am 5 5 mph 1010.3mb 52f
4:00am 7 7 mph 1010.5mb 52f
3:00am 10 11 mph 1011.3mb 52f
2:00am 7 8 mph 1011.3mb 52f
1:00am 11 11 mph 1011.7mb 53f
12:00am 8 9 mph 1012.2mb 53f
Sat 09/16 11:00pm 7 9 mph 1012.3mb 53f
10:00pm 10 14 mph 1012.4mb 53f
9:00pm 9 11 mph 1012.6mb 53f
8:00pm 10 10 mph 1012.5mb 54f
7:00pm 5 6 mph 1012.7mb 56f
6:00pm 2 3 mph 1013.2mb 57f
5:00pm 7 8 mph 1013.9mb 56f
4:00pm 6 7 mph 1014.2mb 56f
3:00pm 8 9 mph 1014.9mb 57f
2:00pm 7 7 mph 1015.6mb 56f
1:00pm 3 5 mph 1016.1mb 61f
12:00pm 3 5 mph 1016.7mb 57f
11:00am 5 6 mph 1016.9mb 57f
10:00am 3 3 mph 1017.2mb 55f
9:00am 3 3 mph 1017.3mb 53f
8:00am 1 2 mph 1017mb 52f